Terminal Aerodrome Forecast
Issued by NWS Portland, ME

Home | Current Version | Previous Version | Text Only | Print | Product List | Glossary On
Versions: 1 2 3 4 5 6 7 8 9 10 11 12 13 14 15 16 17 18 19 20 21 22 23 24 25 26
000
FTUS41 KGYX 021722
TAFPWM
TAF
KPWM 021722Z 0218/0318 17007KT P6SM SCT050 BKN100
     FM030100 VRB03KT 4SM BR BKN100
     FM030200 27005KT P6SM BKN004 OVC080
      TEMPO 0302/0306 3SM -TSRA BR BKN040CB OVC070
     FM030900 27008KT 3SM BR SCT007 BKN100
     FM031300 30014G22KT P6SM SCT050 SCT120=

USA.gov is the U.S. government's official web portal to all federal, state and local government web resources and services.